sensor_id;sensor_type;location;lat;lon;timestamp;pressure;altitude;pressure_sealevel;temperature;humidity
29877;BME280;16750;49.002;9.204;2022-08-27T00:00:00;99003.22;;;20.04;100.00
29877;BME280;16750;49.002;9.204;2022-08-27T00:02:26;98997.84;;;19.96;100.00
29877;BME280;16750;49.002;9.204;2022-08-27T00:04:51;99003.19;;;20.01;100.00
29877;BME280;16750;49.002;9.204;2022-08-27T00:07:16;99017.38;;;20.09;100.00
29877;BME280;16750;49.002;9.204;2022-08-27T00:09:42;98997.84;;;19.93;100.00
29877;BME280;16750;49.002;9.204;2022-08-27T00:12:09;99012.97;;;20.08;100.00
29877;BME280;16750;49.002;9.204;2022-08-27T00:14:37;99025.38;;;20.12;100.00
29877;BME280;16750;49.002;9.204;2022-08-27T00:17:05;99011.25;;;20.11;100.00
29877;BME280;16750;49.002;9.204;2022-08-27T00:19:31;99009.44;;;20.09;100.00
29877;BME280;16750;49.002;9.204;2022-08-27T00:21:57;99028.88;;;20.11;100.00
29877;BME280;16750;49.002;9.204;2022-08-27T00:24:23;99023.63;;;20.14;100.00
29877;BME280;16750;49.002;9.204;2022-08-27T00:26:48;99020.97;;;20.15;100.00
29877;BME280;16750;49.002;9.204;2022-08-27T00:29:15;99029.88;;;20.25;100.00
29877;BME280;16750;49.002;9.204;2022-08-27T00:31:41;98974.97;;;20.09;100.00
29877;BME280;16750;49.002;9.204;2022-08-27T00:34:06;99014.91;;;20.35;100.00
29877;BME280;16750;49.002;9.204;2022-08-27T00:36:32;99019.31;;;20.28;100.00
29877;BME280;16750;49.002;9.204;2022-08-27T00:38:57;99014.78;;;20.16;100.00
29877;BME280;16750;49.002;9.204;2022-08-27T00:41:23;99016.59;;;20.18;100.00
29877;BME280;16750;49.002;9.204;2022-08-27T00:43:52;99018.31;;;20.17;100.00
29877;BME280;16750;49.002;9.204;2022-08-27T00:46:28;99015.69;;;20.15;100.00
29877;BME280;16750;49.002;9.204;2022-08-27T00:48:59;99014.78;;;20.15;100.00
29877;BME280;16750;49.002;9.204;2022-08-27T00:51:27;99009.50;;;20.13;100.00
29877;BME280;16750;49.002;9.204;2022-08-27T00:53:56;99012.13;;;20.16;100.00
29877;BME280;16750;49.002;9.204;2022-08-27T00:56:24;99001.44;;;20.01;100.00
29877;BME280;16750;49.002;9.204;2022-08-27T00:58:52;99012.13;;;20.13;100.00
29877;BME280;16750;49.002;9.204;2022-08-27T01:01:22;99011.22;;;20.13;100.00
29877;BME280;16750;49.002;9.204;2022-08-27T01:03:50;99005.03;;;20.12;100.00
29877;BME280;16750;49.002;9.204;2022-08-27T01:06:17;98977.56;;;19.95;100.00
29877;BME280;16750;49.002;9.204;2022-08-27T01:08:53;99002.38;;;20.08;100.00
29877;BME280;16750;49.002;9.204;2022-08-27T01:11:22;98992.63;;;20.07;100.00
29877;BME280;16750;49.002;9.204;2022-08-27T01:13:49;99002.41;;;20.17;100.00
29877;BME280;16750;49.002;9.204;2022-08-27T01:16:17;98999.78;;;20.19;100.00
29877;BME280;16750;49.002;9.204;2022-08-27T01:18:45;98974.09;;;20.05;100.00
29877;BME280;16750;49.002;9.204;2022-08-27T01:21:40;98990.97;;;20.18;100.00
29877;BME280;16750;49.002;9.204;2022-08-27T01:24:42;99003.28;;;20.11;100.00
29877;BME280;16750;49.002;9.204;2022-08-27T01:27:12;98969.59;;;19.93;100.00
29877;BME280;16750;49.002;9.204;2022-08-27T01:29:39;98978.44;;;19.99;100.00
29877;BME280;16750;49.002;9.204;2022-08-27T01:32:15;98996.19;;;20.10;100.00
29877;BME280;16750;49.002;9.204;2022-08-27T01:34:41;98990.84;;;20.03;100.00
29877;BME280;16750;49.002;9.204;2022-08-27T01:37:08;98988.19;;;20.03;100.00
29877;BME280;16750;49.002;9.204;2022-08-27T01:39:35;99008.59;;;20.11;100.00
29877;BME280;16750;49.002;9.204;2022-08-27T01:42:18;99005.94;;;20.11;100.00
29877;BME280;16750;49.002;9.204;2022-08-27T01:44:55;98989.94;;;19.99;100.00
29877;BME280;16750;49.002;9.204;2022-08-27T01:47:23;99008.53;;;20.08;100.00
29877;BME280;16750;49.002;9.204;2022-08-27T01:49:49;98995.25;;;20.02;100.00
29877;BME280;16750;49.002;9.204;2022-08-27T01:52:18;98995.28;;;20.07;100.00
29877;BME280;16750;49.002;9.204;2022-08-27T01:54:44;99017.44;;;20.16;100.00
29877;BME280;16750;49.002;9.204;2022-08-27T01:57:11;98986.44;;;20.06;100.00
29877;BME280;16750;49.002;9.204;2022-08-27T01:59:37;99013.94;;;20.21;100.00
29877;BME280;16750;49.002;9.204;2022-08-27T02:02:04;98989.16;;;20.12;100.00
29877;BME280;16750;49.002;9.204;2022-08-27T02:04:30;99010.41;;;20.20;100.00
29877;BME280;16750;49.002;9.204;2022-08-27T02:06:56;99005.09;;;20.19;100.00
29877;BME280;16750;49.002;9.204;2022-08-27T02:09:22;99003.28;;;20.13;100.00
29877;BME280;16750;49.002;9.204;2022-08-27T02:11:48;99005.03;;;20.12;100.00
29877;BME280;16750;49.002;9.204;2022-08-27T02:14:13;98968.69;;;19.91;100.00
29877;BME280;16750;49.002;9.204;2022-08-27T02:16:40;98983.75;;;19.97;100.00
29877;BME280;16750;49.002;9.204;2022-08-27T02:19:06;99005.91;;;20.13;100.00
29877;BME280;16750;49.002;9.204;2022-08-27T02:21:31;99004.22;;;20.20;100.00
29877;BME280;16750;49.002;9.204;2022-08-27T02:23:56;98989.22;;;20.22;100.00
29877;BME280;16750;49.002;9.204;2022-08-27T02:26:22;99000.72;;;20.25;100.00
29877;BME280;16750;49.002;9.204;2022-08-27T02:28:47;98997.19;;;20.25;100.00
29877;BME280;16750;49.002;9.204;2022-08-27T02:31:13;98984.78;;;20.19;100.00
29877;BME280;16750;49.002;9.204;2022-08-27T02:33:39;98994.56;;;20.29;100.00
29877;BME280;16750;49.002;9.204;2022-08-27T02:36:05;98981.28;;;20.22;100.00
29877;BME280;16750;49.002;9.204;2022-08-27T02:38:30;98993.72;;;20.35;100.00
29877;BME280;16750;49.002;9.204;2022-08-27T02:40:56;98991.06;;;20.32;100.00
29877;BME280;16750;49.002;9.204;2022-08-27T02:43:21;98994.59;;;20.34;100.00
29877;BME280;16750;49.002;9.204;2022-08-27T02:45:47;98994.63;;;20.37;100.00
29877;BME280;16750;49.002;9.204;2022-08-27T02:48:13;99000.78;;;20.34;100.00
29877;BME280;16750;49.002;9.204;2022-08-27T02:50:38;98986.63;;;20.31;100.00
29877;BME280;16750;49.002;9.204;2022-08-27T02:53:04;98999.03;;;20.36;100.00
29877;BME280;16750;49.002;9.204;2022-08-27T02:55:31;98999.91;;;20.35;100.00
29877;BME280;16750;49.002;9.204;2022-08-27T02:57:57;99005.19;;;20.31;100.00
29877;BME280;16750;49.002;9.204;2022-08-27T03:00:24;98978.59;;;20.19;100.00
29877;BME280;16750;49.002;9.204;2022-08-27T03:02:50;99005.22;;;20.34;100.00
29877;BME280;16750;49.002;9.204;2022-08-27T03:05:17;98999.00;;;20.30;100.00
29877;BME280;16750;49.002;9.204;2022-08-27T03:07:43;98986.50;;;20.12;100.00
29877;BME280;16750;49.002;9.204;2022-08-27T03:10:10;98995.31;;;20.13;100.00
29877;BME280;16750;49.002;9.204;2022-08-27T03:12:36;99020.06;;;20.12;100.00
29877;BME280;16750;49.002;9.204;2022-08-27T03:15:07;99015.59;;;20.03;100.00
29877;BME280;16750;49.002;9.204;2022-08-27T03:17:33;99019.03;;;19.96;100.00
29877;BME280;16750;49.002;9.204;2022-08-27T03:20:17;99002.16;;;19.83;100.00
29877;BME280;16750;49.002;9.204;2022-08-27T03:22:43;99002.97;;;19.76;100.00
29877;BME280;16750;49.002;9.204;2022-08-27T03:25:09;98952.44;;;19.51;100.00
29877;BME280;16750;49.002;9.204;2022-08-27T03:27:34;99005.63;;;19.78;100.00
29877;BME280;16750;49.002;9.204;2022-08-27T03:30:02;99008.44;;;19.93;100.00
29877;BME280;16750;49.002;9.204;2022-08-27T03:32:28;99014.59;;;19.89;100.00
29877;BME280;16750;49.002;9.204;2022-08-27T03:34:56;99004.78;;;19.80;100.00
29877;BME280;16750;49.002;9.204;2022-08-27T03:37:22;99003.94;;;19.83;100.00
29877;BME280;16750;49.002;9.204;2022-08-27T03:39:48;98997.69;;;19.78;100.00
29877;BME280;16750;49.002;9.204;2022-08-27T03:42:13;99014.59;;;19.89;100.00
29877;BME280;16750;49.002;9.204;2022-08-27T03:44:38;98997.66;;;19.73;100.00
29877;BME280;16750;49.002;9.204;2022-08-27T03:47:04;98991.50;;;19.75;100.00
29877;BME280;16750;49.002;9.204;2022-08-27T03:49:29;99002.97;;;19.76;100.00
29877;BME280;16750;49.002;9.204;2022-08-27T03:51:55;99001.28;;;19.83;100.00
29877;BME280;16750;49.002;9.204;2022-08-27T03:54:21;99006.63;;;19.87;100.00
29877;BME280;16750;49.002;9.204;2022-08-27T03:56:46;99016.34;;;19.87;100.00
29877;BME280;16750;49.002;9.204;2022-08-27T03:59:11;99010.97;;;19.79;100.00
29877;BME280;16750;49.002;9.204;2022-08-27T04:01:37;99009.25;;;19.87;100.00
29877;BME280;16750;49.002;9.204;2022-08-27T04:04:03;98988.94;;;19.86;100.00
29877;BME280;16750;49.002;9.204;2022-08-27T04:06:28;99007.56;;;19.99;100.00
29877;BME280;16750;49.002;9.204;2022-08-27T04:08:53;98987.19;;;19.88;100.00
29877;BME280;16750;49.002;9.204;2022-08-27T04:11:19;98974.78;;;19.81;100.00
29877;BME280;16750;49.002;9.204;2022-08-27T04:13:46;98979.25;;;19.90;100.00
29877;BME280;16750;49.002;9.204;2022-08-27T04:16:11;99001.44;;;20.04;100.00
29877;BME280;16750;49.002;9.204;2022-08-27T04:18:37;98998.72;;;19.96;100.00
29877;BME280;16750;49.002;9.204;2022-08-27T04:21:10;98997.88;;;20.01;100.00
29877;BME280;16750;49.002;9.204;2022-08-27T04:23:38;99011.19;;;20.07;100.00
29877;BME280;16750;49.002;9.204;2022-08-27T04:26:05;99011.25;;;20.11;100.00
29877;BME280;16750;49.002;9.204;2022-08-27T04:28:31;99012.13;;;20.12;100.00
29877;BME280;16750;49.002;9.204;2022-08-27T04:30:57;98989.94;;;20.01;100.00
29877;BME280;16750;49.002;9.204;2022-08-27T04:33:22;99012.97;;;20.08;100.00
29877;BME280;16750;49.002;9.204;2022-08-27T04:35:59;99017.34;;;20.01;100.00
29877;BME280;16750;49.002;9.204;2022-08-27T04:38:26;99016.44;;;20.01;100.00
29877;BME280;16750;49.002;9.204;2022-08-27T04:40:52;98999.66;;;19.97;100.00
29877;BME280;16750;49.002;9.204;2022-08-27T04:43:35;99007.63;;;20.02;100.00
29877;BME280;16750;49.002;9.204;2022-08-27T04:46:01;98999.63;;;19.99;100.00
29877;BME280;16750;49.002;9.204;2022-08-27T04:48:26;98947.28;;;19.68;100.00
29877;BME280;16750;49.002;9.204;2022-08-27T04:50:52;99022.72;;;20.13;100.00
29877;BME280;16750;49.002;9.204;2022-08-27T04:53:17;98996.16;;;20.01;100.00
29877;BME280;16750;49.002;9.204;2022-08-27T04:55:46;99025.44;;;20.20;100.00
29877;BME280;16750;49.002;9.204;2022-08-27T04:58:13;99020.13;;;20.23;100.00
29877;BME280;16750;49.002;9.204;2022-08-27T05:00:44;99021.94;;;20.27;100.00
29877;BME280;16750;49.002;9.204;2022-08-27T05:03:11;99017.56;;;20.30;100.00
29877;BME280;16750;49.002;9.204;2022-08-27T05:05:36;99001.59;;;20.24;100.00
29877;BME280;16750;49.002;9.204;2022-08-27T05:08:03;99024.66;;;20.34;100.00
29877;BME280;16750;49.002;9.204;2022-08-27T05:10:37;99021.97;;;20.33;100.00
29877;BME280;16750;49.002;9.204;2022-08-27T05:13:02;99006.91;;;20.26;100.00
29877;BME280;16750;49.002;9.204;2022-08-27T05:15:27;99028.19;;;20.35;100.00
29877;BME280;16750;49.002;9.204;2022-08-27T05:17:54;99022.03;;;20.42;100.00
29877;BME280;16750;49.002;9.204;2022-08-27T05:20:27;99023.84;;;20.45;100.00
29877;BME280;16750;49.002;9.204;2022-08-27T05:22:54;99014.09;;;20.44;100.00
29877;BME280;16750;49.002;9.204;2022-08-27T05:25:19;99004.34;;;20.40;100.00
29877;BME280;16750;49.002;9.204;2022-08-27T05:27:44;99008.81;;;20.48;100.00
29877;BME280;16750;49.002;9.204;2022-08-27T05:30:10;99012.41;;;20.55;100.00
29877;BME280;16750;49.002;9.204;2022-08-27T05:32:36;99010.66;;;20.59;100.00
29877;BME280;16750;49.002;9.204;2022-08-27T05:35:02;99004.44;;;20.56;100.00
29877;BME280;16750;49.002;9.204;2022-08-27T05:37:27;99020.44;;;20.69;100.00
29877;BME280;16750;49.002;9.204;2022-08-27T05:39:53;99023.88;;;20.54;100.00
29877;BME280;16750;49.002;9.204;2022-08-27T05:42:18;99022.06;;;20.48;100.00
29877;BME280;16750;49.002;9.204;2022-08-27T05:44:44;99005.25;;;20.43;100.00
29877;BME280;16750;49.002;9.204;2022-08-27T05:47:09;99023.88;;;20.54;100.00
29877;BME280;16750;49.002;9.204;2022-08-27T05:49:35;99004.31;;;20.33;100.00
29877;BME280;16750;49.002;9.204;2022-08-27T05:52:00;99027.38;;;20.48;100.00
29877;BME280;16750;49.002;9.204;2022-08-27T05:54:26;99013.97;;;20.24;100.00
29877;BME280;16750;49.002;9.204;2022-08-27T05:56:51;99036.13;;;20.38;100.00
29877;BME280;16750;49.002;9.204;2022-08-27T05:59:17;99033.53;;;20.46;100.00
29877;BME280;16750;49.002;9.204;2022-08-27T06:02:02;99034.41;;;20.46;100.00
29877;BME280;16750;49.002;9.204;2022-08-27T06:04:28;99016.78;;;20.51;100.00
29877;BME280;16750;49.002;9.204;2022-08-27T06:06:54;99030.16;;;20.67;100.00
29877;BME280;16750;49.002;9.204;2022-08-27T06:09:22;99031.94;;;20.68;100.00
29877;BME280;16750;49.002;9.204;2022-08-27T06:11:48;99026.69;;;20.74;100.00
29877;BME280;16750;49.002;9.204;2022-08-27T06:14:14;99024.94;;;20.82;100.00
29877;BME280;16750;49.002;9.204;2022-08-27T06:16:40;99009.94;;;20.84;100.00
29877;BME280;16750;49.002;9.204;2022-08-27T06:19:06;99037.44;;;21.08;100.00
29877;BME280;16750;49.002;9.204;2022-08-27T06:21:32;99034.78;;;21.12;100.00
29877;BME280;16750;49.002;9.204;2022-08-27T06:23:58;99047.19;;;21.09;100.00
29877;BME280;16750;49.002;9.204;2022-08-27T06:26:25;99052.53;;;21.24;100.00
29877;BME280;16750;49.002;9.204;2022-08-27T06:28:50;99041.91;;;21.24;100.00
29877;BME280;16750;49.002;9.204;2022-08-27T06:31:19;99055.25;;;21.36;100.00
29877;BME280;16750;49.002;9.204;2022-08-27T06:33:46;99051.75;;;21.45;100.00
29877;BME280;16750;49.002;9.204;2022-08-27T06:36:14;99055.31;;;21.53;100.00
29877;BME280;16750;49.002;9.204;2022-08-27T06:38:40;99057.97;;;21.55;100.00
29877;BME280;16750;49.002;9.204;2022-08-27T06:41:10;99065.06;;;21.54;100.00
29877;BME280;16750;49.002;9.204;2022-08-27T06:43:36;99044.59;;;21.35;100.00
29877;BME280;16750;49.002;9.204;2022-08-27T06:46:03;99068.53;;;21.38;100.00
29877;BME280;16750;49.002;9.204;2022-08-27T06:48:29;99067.63;;;21.34;100.00
29877;BME280;16750;49.002;9.204;2022-08-27T06:50:55;99053.44;;;21.26;100.00
29877;BME280;16750;49.002;9.204;2022-08-27T06:53:20;99077.38;;;21.40;100.00
29877;BME280;16750;49.002;9.204;2022-08-27T06:55:47;99073.88;;;21.44;100.00
29877;BME280;16750;49.002;9.204;2022-08-27T06:58:13;99067.72;;;21.48;100.00
29877;BME280;16750;49.002;9.204;2022-08-27T07:00:39;99070.28;;;21.39;100.00
29877;BME280;16750;49.002;9.204;2022-08-27T07:03:06;99056.13;;;21.37;100.00
29877;BME280;16750;49.002;9.204;2022-08-27T07:05:32;99041.97;;;21.33;100.00
29877;BME280;16750;49.002;9.204;2022-08-27T07:07:58;99056.19;;;21.46;100.00
29877;BME280;16750;49.002;9.204;2022-08-27T07:10:24;99064.19;;;21.52;100.00
29877;BME280;16750;49.002;9.204;2022-08-27T07:12:50;99073.06;;;21.65;100.00
29877;BME280;16750;49.002;9.204;2022-08-27T07:15:16;99070.41;;;21.67;100.00
29877;BME280;16750;49.002;9.204;2022-08-27T07:17:42;99050.88;;;21.51;100.00
29877;BME280;16750;49.002;9.204;2022-08-27T07:20:13;99075.72;;;21.67;100.00
29877;BME280;16750;49.002;9.204;2022-08-27T07:22:40;99073.03;;;21.64;100.00
29877;BME280;16750;49.002;9.204;2022-08-27T07:25:07;99067.69;;;21.47;100.00
29877;BME280;16750;49.002;9.204;2022-08-27T07:27:37;99082.75;;;21.55;100.00
29877;BME280;16750;49.002;9.204;2022-08-27T07:30:05;99067.69;;;21.47;100.00
29877;BME280;16750;49.002;9.204;2022-08-27T07:32:31;99060.63;;;21.44;100.00
29877;BME280;16750;49.002;9.204;2022-08-27T07:34:57;99071.19;;;21.40;100.00
29877;BME280;16750;49.002;9.204;2022-08-27T07:37:23;99091.63;;;21.54;100.00
29877;BME280;16750;49.002;9.204;2022-08-27T07:39:48;99089.84;;;21.50;100.00
29877;BME280;16750;49.002;9.204;2022-08-27T07:42:13;99096.03;;;21.48;100.00
29877;BME280;16750;49.002;9.204;2022-08-27T07:44:57;99103.13;;;21.50;100.00
29877;BME280;16750;49.002;9.204;2022-08-27T07:47:23;99097.81;;;21.60;100.00
29877;BME280;16750;49.002;9.204;2022-08-27T07:49:48;99107.53;;;21.53;100.00
29877;BME280;16750;49.002;9.204;2022-08-27T07:52:14;99097.72;;;21.32;100.00
29877;BME280;16750;49.002;9.204;2022-08-27T07:54:40;99084.34;;;21.16;100.00
29877;BME280;16750;49.002;9.204;2022-08-27T07:57:07;99110.97;;;21.27;100.00
29877;BME280;16750;49.002;9.204;2022-08-27T07:59:32;99096.78;;;21.19;100.00
29877;BME280;16750;49.002;9.204;2022-08-27T08:01:58;99117.16;;;21.32;100.00
29877;BME280;16750;49.002;9.204;2022-08-27T08:04:23;99110.06;;;21.28;100.00
29877;BME280;16750;49.002;9.204;2022-08-27T08:06:50;99108.31;;;21.32;100.00
29877;BME280;16750;49.002;9.204;2022-08-27T08:09:15;99118.03;;;21.27;100.00
29877;BME280;16750;49.002;9.204;2022-08-27T08:11:41;99117.16;;;21.26;100.00
29877;BME280;16750;49.002;9.204;2022-08-27T08:14:06;99119.81;;;21.28;100.00
29877;BME280;16750;49.002;9.204;2022-08-27T08:16:32;99105.63;;;21.24;100.00
29877;BME280;16750;49.002;9.204;2022-08-27T08:18:57;99116.28;;;21.27;100.00
29877;BME280;16750;49.002;9.204;2022-08-27T08:21:24;99126.84;;;21.23;100.00
29877;BME280;16750;49.002;9.204;2022-08-27T08:23:50;99099.38;;;21.07;100.00
29877;BME280;16750;49.002;9.204;2022-08-27T08:26:15;99114.44;;;21.14;100.00
29877;BME280;16750;49.002;9.204;2022-08-27T08:28:41;99127.78;;;21.32;100.00
29877;BME280;16750;49.002;9.204;2022-08-27T08:31:07;99129.66;;;21.46;100.00
29877;BME280;16750;49.002;9.204;2022-08-27T08:33:34;99133.22;;;21.57;100.00
29877;BME280;16750;49.002;9.204;2022-08-27T08:36:08;99139.47;;;21.67;100.00
29877;BME280;16750;49.002;9.204;2022-08-27T08:38:35;99126.19;;;21.67;100.00
29877;BME280;16750;49.002;9.204;2022-08-27T08:41:02;99127.09;;;21.75;100.00
29877;BME280;16750;49.002;9.204;2022-08-27T08:43:38;99130.69;;;21.95;100.00
29877;BME280;16750;49.002;9.204;2022-08-27T08:46:15;99143.09;;;22.07;100.00
29877;BME280;16750;49.002;9.204;2022-08-27T08:48:45;99148.41;;;22.13;100.00
29877;BME280;16750;49.002;9.204;2022-08-27T08:51:35;99138.66;;;22.05;100.00
29877;BME280;16750;49.002;9.204;2022-08-27T08:54:13;99149.31;;;22.09;100.00
29877;BME280;16750;49.002;9.204;2022-08-27T08:56:42;99156.41;;;22.00;100.00
29877;BME280;16750;49.002;9.204;2022-08-27T08:59:20;99150.16;;;21.94;100.00
29877;BME280;16750;49.002;9.204;2022-08-27T09:01:50;99155.47;;;21.99;100.00
29877;BME280;16750;49.002;9.204;2022-08-27T09:04:15;99159.94;;;22.09;100.00
29877;BME280;16750;49.002;9.204;2022-08-27T09:07:00;99162.66;;;22.35;100.00
29877;BME280;16750;49.002;9.204;2022-08-27T09:09:35;99162.66;;;22.52;100.00
29877;BME280;16750;49.002;9.204;2022-08-27T09:12:20;99162.66;;;22.69;100.00
29877;BME280;16750;49.002;9.204;2022-08-27T09:14:55;99160.88;;;22.85;100.00
29877;BME280;16750;49.002;9.204;2022-08-27T09:17:23;99157.34;;;22.92;100.00
29877;BME280;16750;49.002;9.204;2022-08-27T09:19:48;99144.88;;;22.96;100.00
29877;BME280;16750;49.002;9.204;2022-08-27T09:25:21;99165.31;;;23.12;100.00
29877;BME280;16750;49.002;9.204;2022-08-27T09:27:50;99167.13;;;23.01;100.00
29877;BME280;16750;49.002;9.204;2022-08-27T09:30:22;99167.97;;;22.89;100.00
29877;BME280;16750;49.002;9.204;2022-08-27T09:33:00;99137.84;;;22.69;100.00
29877;BME280;16750;49.002;9.204;2022-08-27T09:35:38;99154.69;;;22.80;100.00
29877;BME280;16750;49.002;9.204;2022-08-27T09:38:05;99105.94;;;22.47;100.00
29877;BME280;16750;49.002;9.204;2022-08-27T09:40:37;99157.31;;;22.89;100.00
29877;BME280;16750;49.002;9.204;2022-08-27T09:43:20;99099.72;;;22.64;100.00
29877;BME280;16750;49.002;9.204;2022-08-27T09:45:50;99151.97;;;23.11;100.00
29877;BME280;16750;49.002;9.204;2022-08-27T09:48:23;99151.94;;;23.34;100.00
29877;BME280;16750;49.002;9.204;2022-08-27T09:50:57;99143.84;;;23.54;100.00
29877;BME280;16750;49.002;9.204;2022-08-27T09:53:36;99157.94;;;23.87;100.00
29877;BME280;16750;49.002;9.204;2022-08-27T09:56:07;99149.00;;;24.00;100.00
29877;BME280;16750;49.002;9.204;2022-08-27T09:58:51;99124.91;;;24.11;100.00
29877;BME280;16750;49.002;9.204;2022-08-27T10:01:25;99148.75;;;24.34;100.00
29877;BME280;16750;49.002;9.204;2022-08-27T10:04:13;99146.00;;;24.45;100.00
29877;BME280;16750;49.002;9.204;2022-08-27T10:06:49;99146.72;;;24.67;100.00
29877;BME280;16750;49.002;9.204;2022-08-27T10:09:29;99148.38;;;24.83;100.00
29877;BME280;16750;49.002;9.204;2022-08-27T10:12:02;99123.47;;;24.81;100.00
29877;BME280;16750;49.002;9.204;2022-08-27T10:14:37;99140.28;;;24.91;100.00
29877;BME280;16750;49.002;9.204;2022-08-27T10:31:01;99141.38;;;25.53;100.00
29877;BME280;16750;49.002;9.204;2022-08-27T10:44:45;99158.22;;;25.60;100.00
29877;BME280;16750;49.002;9.204;2022-08-27T10:49:59;99157.28;;;25.63;100.00
29877;BME280;16750;49.002;9.204;2022-08-27T10:52:40;99160.81;;;25.68;100.00
29877;BME280;16750;49.002;9.204;2022-08-27T10:55:32;99157.16;;;25.73;100.00
29877;BME280;16750;49.002;9.204;2022-08-27T10:58:08;99158.78;;;25.84;100.00
29877;BME280;16750;49.002;9.204;2022-08-27T11:00:41;99154.34;;;25.84;100.00
29877;BME280;16750;49.002;9.204;2022-08-27T11:03:16;99153.66;;;25.68;100.00
29877;BME280;16750;49.002;9.204;2022-08-27T11:05:47;99167.09;;;25.62;100.00
29877;BME280;16750;49.002;9.204;2022-08-27T11:08:18;99142.47;;;25.37;100.00
29877;BME280;16750;49.002;9.204;2022-08-27T11:10:57;99167.31;;;25.44;100.00
29877;BME280;16750;49.002;9.204;2022-08-27T11:15:55;99151.59;;;25.16;100.00
29877;BME280;16750;49.002;9.204;2022-08-27T11:21:04;99154.97;;;25.35;100.00
29877;BME280;16750;49.002;9.204;2022-08-27T11:23:34;99161.91;;;25.51;100.00
29877;BME280;16750;49.002;9.204;2022-08-27T11:26:03;99163.72;;;25.48;100.00
29877;BME280;16750;49.002;9.204;2022-08-27T11:28:33;99164.44;;;25.61;100.00
29877;BME280;16750;49.002;9.204;2022-08-27T11:36:37;99172.25;;;25.77;100.00
29877;BME280;16750;49.002;9.204;2022-08-27T11:42:23;99162.28;;;25.92;100.00
29877;BME280;16750;49.002;9.204;2022-08-27T11:44:55;99161.44;;;25.87;100.00
29877;BME280;16750;49.002;9.204;2022-08-27T11:47:24;99158.06;;;25.72;100.00
29877;BME280;16750;49.002;9.204;2022-08-27T11:50:02;99129.97;;;25.41;100.00
29877;BME280;16750;49.002;9.204;2022-08-27T11:52:39;99154.13;;;25.31;100.00
29877;BME280;16750;49.002;9.204;2022-08-27T11:57:48;99138.25;;;25.14;100.00
29877;BME280;16750;49.002;9.204;2022-08-27T12:06:16;99155.63;;;25.54;100.00
29877;BME280;16750;49.002;9.204;2022-08-27T12:08:42;99147.66;;;25.51;100.00
29877;BME280;16750;49.002;9.204;2022-08-27T12:11:29;99153.25;;;25.29;100.00
29877;BME280;16750;49.002;9.204;2022-08-27T12:14:33;99150.50;;;25.37;100.00
29877;BME280;16750;49.002;9.204;2022-08-27T12:24:52;99145.97;;;25.42;100.00
29877;BME280;16750;49.002;9.204;2022-08-27T12:29:58;99143.13;;;25.54;100.00
29877;BME280;16750;49.002;9.204;2022-08-27T12:32:40;99144.88;;;25.58;100.00
29877;BME280;16750;49.002;9.204;2022-08-27T12:35:46;99140.28;;;25.70;100.00
29877;BME280;16750;49.002;9.204;2022-08-27T12:40:56;99133.16;;;25.67;100.00
29877;BME280;16750;49.002;9.204;2022-08-27T12:43:29;99137.56;;;25.73;100.00
29877;BME280;16750;49.002;9.204;2022-08-27T12:46:07;99129.53;;;25.73;100.00
29877;BME280;16750;49.002;9.204;2022-08-27T12:48:39;99132.34;;;25.64;100.00
29877;BME280;16750;49.002;9.204;2022-08-27T12:51:11;99139.66;;;25.51;100.00
29877;BME280;16750;49.002;9.204;2022-08-27T12:53:49;99123.69;;;25.43;100.00
29877;BME280;16750;49.002;9.204;2022-08-27T13:02:07;99117.41;;;25.49;100.00
29877;BME280;16750;49.002;9.204;2022-08-27T13:04:39;99130.88;;;25.38;100.00
29877;BME280;16750;49.002;9.204;2022-08-27T13:07:06;99129.19;;;25.31;100.00
29877;BME280;16750;49.002;9.204;2022-08-27T13:09:34;99136.34;;;25.29;100.00
29877;BME280;16750;49.002;9.204;2022-08-27T13:12:03;99132.81;;;25.25;100.00
29877;BME280;16750;49.002;9.204;2022-08-27T13:14:37;99133.16;;;24.90;100.00
29877;BME280;16750;49.002;9.204;2022-08-27T13:22:19;99122.91;;;24.42;100.00
29877;BME280;16750;49.002;9.204;2022-08-27T13:24:48;99097.31;;;24.16;100.00
29877;BME280;16750;49.002;9.204;2022-08-27T13:27:13;99125.78;;;24.11;100.00
29877;BME280;16750;49.002;9.204;2022-08-27T13:29:40;99122.28;;;24.05;100.00
29877;BME280;16750;49.002;9.204;2022-08-27T13:32:07;99119.59;;;24.09;100.00
29877;BME280;16750;49.002;9.204;2022-08-27T13:34:37;99106.25;;;24.12;100.00
29877;BME280;16750;49.002;9.204;2022-08-27T13:37:33;99125.66;;;24.31;100.00
29877;BME280;16750;49.002;9.204;2022-08-27T13:39:59;99119.28;;;24.54;100.00
29877;BME280;16750;49.002;9.204;2022-08-27T13:42:25;99125.34;;;24.71;100.00
29877;BME280;16750;49.002;9.204;2022-08-27T13:44:54;99128.81;;;24.83;100.00
29877;BME280;16750;49.002;9.204;2022-08-27T13:47:27;99133.97;;;24.96;100.00
29877;BME280;16750;49.002;9.204;2022-08-27T13:50:02;99126.75;;;25.06;100.00
29877;BME280;16750;49.002;9.204;2022-08-27T13:52:34;99118.69;;;25.11;100.00
29877;BME280;16750;49.002;9.204;2022-08-27T13:55:07;99130.31;;;25.07;100.00
29877;BME280;16750;49.002;9.204;2022-08-27T13:57:45;99133.16;;;24.93;100.00
29877;BME280;16750;49.002;9.204;2022-08-27T14:02:43;99102.09;;;24.83;100.00
29877;BME280;16750;49.002;9.204;2022-08-27T14:05:14;99097.31;;;25.11;100.00
29877;BME280;16750;49.002;9.204;2022-08-27T14:07:49;99127.00;;;25.62;100.00
29877;BME280;16750;49.002;9.204;2022-08-27T14:10:28;99124.00;;;25.87;100.00
29877;BME280;16750;49.002;9.204;2022-08-27T14:12:58;99119.19;;;26.12;100.00
29877;BME280;16750;49.002;9.204;2022-08-27T14:17:52;99121.41;;;26.40;100.00
29877;BME280;16750;49.002;9.204;2022-08-27T14:20:19;99113.34;;;26.44;100.00
29877;BME280;16750;49.002;9.204;2022-08-27T14:22:45;99103.59;;;26.40;100.00